sensor_id;sensor_type;location;lat;lon;timestamp;P1;durP1;ratioP1;P2;durP2;ratioP2
10389;SDS011;5241;47.830;12.972;2024-03-17T00:02:16;2.57;;;1.90;;
10389;SDS011;5241;47.830;12.972;2024-03-17T00:04:45;2.77;;;1.43;;
10389;SDS011;5241;47.830;12.972;2024-03-17T00:07:11;2.43;;;2.10;;
10389;SDS011;5241;47.830;12.972;2024-03-17T00:09:37;1.63;;;1.47;;
10389;SDS011;5241;47.830;12.972;2024-03-17T00:12:03;3.00;;;2.00;;
10389;SDS011;5241;47.830;12.972;2024-03-17T00:14:29;1.80;;;1.70;;
10389;SDS011;5241;47.830;12.972;2024-03-17T00:16:55;1.80;;;1.60;;
10389;SDS011;5241;47.830;12.972;2024-03-17T00:19:20;1.80;;;1.67;;
10389;SDS011;5241;47.830;12.972;2024-03-17T00:21:48;2.20;;;1.80;;
10389;SDS011;5241;47.830;12.972;2024-03-17T00:24:15;2.80;;;1.83;;
10389;SDS011;5241;47.830;12.972;2024-03-17T00:26:41;1.97;;;1.63;;
10389;SDS011;5241;47.830;12.972;2024-03-17T00:29:07;2.63;;;1.80;;
10389;SDS011;5241;47.830;12.972;2024-03-17T00:31:33;2.23;;;1.77;;
10389;SDS011;5241;47.830;12.972;2024-03-17T00:33:59;3.17;;;1.80;;
10389;SDS011;5241;47.830;12.972;2024-03-17T00:36:25;2.60;;;1.57;;
10389;SDS011;5241;47.830;12.972;2024-03-17T00:38:50;2.60;;;2.10;;
10389;SDS011;5241;47.830;12.972;2024-03-17T00:41:19;2.27;;;1.60;;
10389;SDS011;5241;47.830;12.972;2024-03-17T00:43:44;2.37;;;1.90;;
10389;SDS011;5241;47.830;12.972;2024-03-17T00:46:10;1.97;;;1.70;;
10389;SDS011;5241;47.830;12.972;2024-03-17T00:48:37;2.07;;;1.77;;
10389;SDS011;5241;47.830;12.972;2024-03-17T00:51:02;2.77;;;2.23;;
10389;SDS011;5241;47.830;12.972;2024-03-17T00:53:28;2.70;;;2.07;;
10389;SDS011;5241;47.830;12.972;2024-03-17T00:55:54;4.43;;;1.97;;
10389;SDS011;5241;47.830;12.972;2024-03-17T00:58:23;3.17;;;2.17;;
10389;SDS011;5241;47.830;12.972;2024-03-17T01:00:49;3.37;;;2.10;;
10389;SDS011;5241;47.830;12.972;2024-03-17T01:03:14;3.23;;;2.30;;
10389;SDS011;5241;47.830;12.972;2024-03-17T01:05:43;3.33;;;2.70;;
10389;SDS011;5241;47.830;12.972;2024-03-17T01:08:11;3.37;;;2.40;;
10389;SDS011;5241;47.830;12.972;2024-03-17T01:10:38;3.27;;;2.70;;
10389;SDS011;5241;47.830;12.972;2024-03-17T01:13:07;3.67;;;3.03;;
10389;SDS011;5241;47.830;12.972;2024-03-17T01:15:37;3.93;;;2.67;;
10389;SDS011;5241;47.830;12.972;2024-03-17T01:18:06;4.23;;;2.80;;
10389;SDS011;5241;47.830;12.972;2024-03-17T01:20:34;3.93;;;2.63;;
10389;SDS011;5241;47.830;12.972;2024-03-17T01:23:00;3.77;;;3.07;;
10389;SDS011;5241;47.830;12.972;2024-03-17T01:25:26;4.10;;;3.00;;
10389;SDS011;5241;47.830;12.972;2024-03-17T01:27:52;3.10;;;2.50;;
10389;SDS011;5241;47.830;12.972;2024-03-17T01:30:18;2.53;;;2.27;;
10389;SDS011;5241;47.830;12.972;2024-03-17T01:32:47;2.93;;;2.23;;
10389;SDS011;5241;47.830;12.972;2024-03-17T01:35:12;2.83;;;2.13;;
10389;SDS011;5241;47.830;12.972;2024-03-17T01:37:38;4.17;;;2.07;;
10389;SDS011;5241;47.830;12.972;2024-03-17T01:40:04;2.37;;;1.97;;
10389;SDS011;5241;47.830;12.972;2024-03-17T01:42:40;3.27;;;2.10;;
10389;SDS011;5241;47.830;12.972;2024-03-17T01:47:51;3.07;;;2.33;;
10389;SDS011;5241;47.830;12.972;2024-03-17T01:50:18;2.47;;;2.13;;
10389;SDS011;5241;47.830;12.972;2024-03-17T01:52:49;2.53;;;2.10;;
10389;SDS011;5241;47.830;12.972;2024-03-17T01:55:19;2.73;;;2.17;;
10389;SDS011;5241;47.830;12.972;2024-03-17T01:57:46;2.67;;;2.20;;
10389;SDS011;5241;47.830;12.972;2024-03-17T02:00:11;2.40;;;1.97;;
10389;SDS011;5241;47.830;12.972;2024-03-17T02:02:37;2.97;;;2.07;;
10389;SDS011;5241;47.830;12.972;2024-03-17T02:05:03;3.73;;;2.57;;
10389;SDS011;5241;47.830;12.972;2024-03-17T02:07:29;3.30;;;2.30;;
10389;SDS011;5241;47.830;12.972;2024-03-17T02:09:56;3.30;;;2.40;;
10389;SDS011;5241;47.830;12.972;2024-03-17T02:12:22;3.33;;;2.30;;
10389;SDS011;5241;47.830;12.972;2024-03-17T02:14:48;5.13;;;2.20;;
10389;SDS011;5241;47.830;12.972;2024-03-17T02:17:14;3.90;;;2.63;;
10389;SDS011;5241;47.830;12.972;2024-03-17T02:19:39;3.07;;;2.10;;
10389;SDS011;5241;47.830;12.972;2024-03-17T02:22:08;3.47;;;2.20;;
10389;SDS011;5241;47.830;12.972;2024-03-17T02:24:38;2.83;;;1.80;;
10389;SDS011;5241;47.830;12.972;2024-03-17T02:27:04;3.43;;;2.33;;
10389;SDS011;5241;47.830;12.972;2024-03-17T02:29:30;3.30;;;2.03;;
10389;SDS011;5241;47.830;12.972;2024-03-17T02:31:55;2.57;;;2.17;;
10389;SDS011;5241;47.830;12.972;2024-03-17T02:34:21;4.87;;;2.30;;
10389;SDS011;5241;47.830;12.972;2024-03-17T02:36:46;2.87;;;2.20;;
10389;SDS011;5241;47.830;12.972;2024-03-17T02:39:12;4.43;;;2.27;;
10389;SDS011;5241;47.830;12.972;2024-03-17T02:41:58;3.13;;;2.30;;
10389;SDS011;5241;47.830;12.972;2024-03-17T02:44:25;3.03;;;2.50;;
10389;SDS011;5241;47.830;12.972;2024-03-17T02:46:50;2.53;;;2.10;;
10389;SDS011;5241;47.830;12.972;2024-03-17T02:49:16;3.33;;;2.40;;
10389;SDS011;5241;47.830;12.972;2024-03-17T02:51:43;3.73;;;2.40;;
10389;SDS011;5241;47.830;12.972;2024-03-17T02:54:09;3.10;;;2.33;;
10389;SDS011;5241;47.830;12.972;2024-03-17T02:56:34;4.57;;;2.80;;
10389;SDS011;5241;47.830;12.972;2024-03-17T02:59:00;3.17;;;2.47;;
10389;SDS011;5241;47.830;12.972;2024-03-17T03:01:26;6.20;;;2.90;;
10389;SDS011;5241;47.830;12.972;2024-03-17T03:03:51;5.37;;;2.67;;
10389;SDS011;5241;47.830;12.972;2024-03-17T03:06:17;4.13;;;3.13;;
10389;SDS011;5241;47.830;12.972;2024-03-17T03:08:44;5.13;;;3.13;;
10389;SDS011;5241;47.830;12.972;2024-03-17T03:11:13;3.57;;;2.87;;
10389;SDS011;5241;47.830;12.972;2024-03-17T03:13:42;3.57;;;2.67;;
10389;SDS011;5241;47.830;12.972;2024-03-17T03:16:09;4.97;;;2.80;;
10389;SDS011;5241;47.830;12.972;2024-03-17T03:18:36;3.10;;;2.30;;
10389;SDS011;5241;47.830;12.972;2024-03-17T03:21:03;3.90;;;2.60;;
10389;SDS011;5241;47.830;12.972;2024-03-17T03:23:29;3.30;;;2.50;;
10389;SDS011;5241;47.830;12.972;2024-03-17T03:25:56;3.20;;;2.43;;
10389;SDS011;5241;47.830;12.972;2024-03-17T03:28:23;2.83;;;2.23;;
10389;SDS011;5241;47.830;12.972;2024-03-17T03:30:49;3.37;;;2.47;;
10389;SDS011;5241;47.830;12.972;2024-03-17T03:33:14;3.37;;;2.40;;
10389;SDS011;5241;47.830;12.972;2024-03-17T03:35:40;3.07;;;2.37;;
10389;SDS011;5241;47.830;12.972;2024-03-17T03:38:06;6.23;;;2.90;;
10389;SDS011;5241;47.830;12.972;2024-03-17T03:40:31;4.80;;;2.70;;
10389;SDS011;5241;47.830;12.972;2024-03-17T03:42:57;3.50;;;2.60;;
10389;SDS011;5241;47.830;12.972;2024-03-17T03:45:23;3.40;;;2.37;;
10389;SDS011;5241;47.830;12.972;2024-03-17T03:47:49;3.33;;;2.47;;
10389;SDS011;5241;47.830;12.972;2024-03-17T03:50:15;2.73;;;1.97;;
10389;SDS011;5241;47.830;12.972;2024-03-17T03:52:45;4.53;;;3.20;;
10389;SDS011;5241;47.830;12.972;2024-03-17T03:55:11;2.67;;;2.43;;
10389;SDS011;5241;47.830;12.972;2024-03-17T03:57:43;3.50;;;2.40;;
10389;SDS011;5241;47.830;12.972;2024-03-17T04:00:13;6.23;;;2.70;;
10389;SDS011;5241;47.830;12.972;2024-03-17T04:02:40;3.77;;;2.77;;
10389;SDS011;5241;47.830;12.972;2024-03-17T04:05:06;3.97;;;2.70;;
10389;SDS011;5241;47.830;12.972;2024-03-17T04:07:32;3.67;;;2.50;;
10389;SDS011;5241;47.830;12.972;2024-03-17T04:09:59;2.80;;;2.23;;
10389;SDS011;5241;47.830;12.972;2024-03-17T04:12:25;4.00;;;2.47;;
10389;SDS011;5241;47.830;12.972;2024-03-17T04:14:51;3.23;;;2.33;;
10389;SDS011;5241;47.830;12.972;2024-03-17T04:17:19;4.03;;;2.80;;
10389;SDS011;5241;47.830;12.972;2024-03-17T04:19:46;4.67;;;2.67;;
10389;SDS011;5241;47.830;12.972;2024-03-17T04:22:19;2.90;;;2.57;;
10389;SDS011;5241;47.830;12.972;2024-03-17T04:24:46;3.30;;;2.50;;
10389;SDS011;5241;47.830;12.972;2024-03-17T04:27:12;4.43;;;2.40;;
10389;SDS011;5241;47.830;12.972;2024-03-17T04:29:38;3.50;;;2.50;;
10389;SDS011;5241;47.830;12.972;2024-03-17T04:32:04;5.27;;;2.50;;
10389;SDS011;5241;47.830;12.972;2024-03-17T04:34:30;3.93;;;2.93;;
10389;SDS011;5241;47.830;12.972;2024-03-17T04:36:56;3.93;;;2.40;;
10389;SDS011;5241;47.830;12.972;2024-03-17T04:39:22;2.93;;;2.43;;
10389;SDS011;5241;47.830;12.972;2024-03-17T04:41:48;3.50;;;2.37;;
10389;SDS011;5241;47.830;12.972;2024-03-17T04:44:15;5.13;;;2.70;;
10389;SDS011;5241;47.830;12.972;2024-03-17T04:46:40;4.40;;;2.80;;
10389;SDS011;5241;47.830;12.972;2024-03-17T04:49:06;2.63;;;2.33;;
10389;SDS011;5241;47.830;12.972;2024-03-17T04:51:31;3.33;;;2.57;;
10389;SDS011;5241;47.830;12.972;2024-03-17T04:54:00;3.87;;;2.63;;
10389;SDS011;5241;47.830;12.972;2024-03-17T04:56:28;3.97;;;2.93;;
10389;SDS011;5241;47.830;12.972;2024-03-17T04:58:54;3.47;;;2.60;;
10389;SDS011;5241;47.830;12.972;2024-03-17T05:01:20;4.47;;;3.00;;
10389;SDS011;5241;47.830;12.972;2024-03-17T05:03:45;3.50;;;2.60;;
10389;SDS011;5241;47.830;12.972;2024-03-17T05:06:11;4.40;;;2.90;;
10389;SDS011;5241;47.830;12.972;2024-03-17T05:08:36;6.00;;;2.83;;
10389;SDS011;5241;47.830;12.972;2024-03-17T05:11:02;4.23;;;2.70;;
10389;SDS011;5241;47.830;12.972;2024-03-17T05:13:32;6.73;;;3.30;;
10389;SDS011;5241;47.830;12.972;2024-03-17T05:15:59;4.57;;;3.57;;
10389;SDS011;5241;47.830;12.972;2024-03-17T05:18:25;5.13;;;3.10;;
10389;SDS011;5241;47.830;12.972;2024-03-17T05:21:03;4.80;;;3.17;;
10389;SDS011;5241;47.830;12.972;2024-03-17T05:23:30;6.27;;;3.33;;
10389;SDS011;5241;47.830;12.972;2024-03-17T05:25:58;5.13;;;3.77;;
10389;SDS011;5241;47.830;12.972;2024-03-17T05:28:24;5.13;;;3.67;;
10389;SDS011;5241;47.830;12.972;2024-03-17T05:30:51;4.60;;;3.53;;
10389;SDS011;5241;47.830;12.972;2024-03-17T05:33:17;5.60;;;3.60;;
10389;SDS011;5241;47.830;12.972;2024-03-17T05:36:02;4.70;;;3.37;;
10389;SDS011;5241;47.830;12.972;2024-03-17T05:38:29;4.57;;;3.73;;
10389;SDS011;5241;47.830;12.972;2024-03-17T05:43:25;4.23;;;3.20;;
10389;SDS011;5241;47.830;12.972;2024-03-17T05:45:51;4.67;;;3.80;;
10389;SDS011;5241;47.830;12.972;2024-03-17T05:48:18;6.93;;;3.57;;
10389;SDS011;5241;47.830;12.972;2024-03-17T05:50:44;5.40;;;3.63;;
10389;SDS011;5241;47.830;12.972;2024-03-17T05:53:09;4.93;;;3.70;;
10389;SDS011;5241;47.830;12.972;2024-03-17T05:55:35;5.80;;;3.10;;
10389;SDS011;5241;47.830;12.972;2024-03-17T05:58:02;5.50;;;3.40;;
10389;SDS011;5241;47.830;12.972;2024-03-17T06:00:28;3.90;;;3.10;;
10389;SDS011;5241;47.830;12.972;2024-03-17T06:02:54;3.57;;;3.03;;
10389;SDS011;5241;47.830;12.972;2024-03-17T06:05:20;4.00;;;2.83;;
10389;SDS011;5241;47.830;12.972;2024-03-17T06:07:45;4.57;;;3.20;;
10389;SDS011;5241;47.830;12.972;2024-03-17T06:10:12;4.03;;;3.27;;
10389;SDS011;5241;47.830;12.972;2024-03-17T06:12:37;5.13;;;3.07;;
10389;SDS011;5241;47.830;12.972;2024-03-17T06:15:03;4.53;;;3.23;;
10389;SDS011;5241;47.830;12.972;2024-03-17T06:17:29;5.30;;;3.63;;
10389;SDS011;5241;47.830;12.972;2024-03-17T06:19:55;4.13;;;3.10;;
10389;SDS011;5241;47.830;12.972;2024-03-17T06:22:22;5.27;;;3.70;;
10389;SDS011;5241;47.830;12.972;2024-03-17T06:24:48;4.77;;;3.53;;
10389;SDS011;5241;47.830;12.972;2024-03-17T06:27:15;5.03;;;3.73;;
10389;SDS011;5241;47.830;12.972;2024-03-17T06:29:41;5.50;;;3.47;;
10389;SDS011;5241;47.830;12.972;2024-03-17T06:32:07;5.57;;;3.50;;
10389;SDS011;5241;47.830;12.972;2024-03-17T06:34:33;5.60;;;3.37;;
10389;SDS011;5241;47.830;12.972;2024-03-17T06:36:58;5.40;;;3.53;;
10389;SDS011;5241;47.830;12.972;2024-03-17T06:39:25;5.93;;;3.47;;
10389;SDS011;5241;47.830;12.972;2024-03-17T06:41:51;5.10;;;3.43;;
10389;SDS011;5241;47.830;12.972;2024-03-17T06:44:16;4.53;;;3.23;;
10389;SDS011;5241;47.830;12.972;2024-03-17T06:46:42;4.47;;;3.50;;
10389;SDS011;5241;47.830;12.972;2024-03-17T06:49:08;4.97;;;3.57;;
10389;SDS011;5241;47.830;12.972;2024-03-17T06:51:34;4.23;;;3.50;;
10389;SDS011;5241;47.830;12.972;2024-03-17T06:54:00;4.20;;;3.23;;
10389;SDS011;5241;47.830;12.972;2024-03-17T06:56:26;5.43;;;4.17;;
10389;SDS011;5241;47.830;12.972;2024-03-17T06:58:51;4.20;;;3.00;;
10389;SDS011;5241;47.830;12.972;2024-03-17T07:01:17;4.47;;;3.17;;
10389;SDS011;5241;47.830;12.972;2024-03-17T07:03:42;5.47;;;3.30;;
10389;SDS011;5241;47.830;12.972;2024-03-17T07:06:09;6.07;;;3.73;;
10389;SDS011;5241;47.830;12.972;2024-03-17T07:08:35;4.37;;;3.07;;
10389;SDS011;5241;47.830;12.972;2024-03-17T07:13:33;4.13;;;3.10;;
10389;SDS011;5241;47.830;12.972;2024-03-17T07:16:00;4.20;;;3.60;;
10389;SDS011;5241;47.830;12.972;2024-03-17T07:18:27;3.70;;;3.00;;
10389;SDS011;5241;47.830;12.972;2024-03-17T07:20:57;4.37;;;2.97;;
10389;SDS011;5241;47.830;12.972;2024-03-17T07:23:28;4.23;;;3.30;;
10389;SDS011;5241;47.830;12.972;2024-03-17T07:25:55;4.10;;;3.10;;
10389;SDS011;5241;47.830;12.972;2024-03-17T07:28:22;3.80;;;3.17;;
10389;SDS011;5241;47.830;12.972;2024-03-17T07:30:51;3.43;;;3.00;;
10389;SDS011;5241;47.830;12.972;2024-03-17T07:33:18;5.20;;;3.63;;
10389;SDS011;5241;47.830;12.972;2024-03-17T07:35:58;4.27;;;3.17;;
10389;SDS011;5241;47.830;12.972;2024-03-17T07:38:28;5.80;;;3.23;;
10389;SDS011;5241;47.830;12.972;2024-03-17T07:40:55;3.50;;;2.70;;
10389;SDS011;5241;47.830;12.972;2024-03-17T07:43:25;3.57;;;2.67;;
10389;SDS011;5241;47.830;12.972;2024-03-17T07:48:28;3.57;;;2.87;;
10389;SDS011;5241;47.830;12.972;2024-03-17T07:51:01;2.93;;;2.50;;
10389;SDS011;5241;47.830;12.972;2024-03-17T07:53:34;3.37;;;2.60;;
10389;SDS011;5241;47.830;12.972;2024-03-17T07:56:02;3.87;;;2.43;;
10389;SDS011;5241;47.830;12.972;2024-03-17T07:58:29;2.50;;;2.30;;
10389;SDS011;5241;47.830;12.972;2024-03-17T08:00:58;2.50;;;2.10;;
10389;SDS011;5241;47.830;12.972;2024-03-17T08:03:27;2.67;;;1.90;;
10389;SDS011;5241;47.830;12.972;2024-03-17T08:05:57;2.33;;;1.93;;
10389;SDS011;5241;47.830;12.972;2024-03-17T08:08:23;2.50;;;2.20;;
10389;SDS011;5241;47.830;12.972;2024-03-17T08:10:49;2.20;;;2.00;;
10389;SDS011;5241;47.830;12.972;2024-03-17T08:13:16;2.80;;;2.30;;
10389;SDS011;5241;47.830;12.972;2024-03-17T08:15:42;3.80;;;2.57;;
10389;SDS011;5241;47.830;12.972;2024-03-17T08:18:09;3.43;;;2.33;;
10389;SDS011;5241;47.830;12.972;2024-03-17T08:20:41;2.07;;;1.93;;
10389;SDS011;5241;47.830;12.972;2024-03-17T08:23:08;2.13;;;1.60;;
10389;SDS011;5241;47.830;12.972;2024-03-17T08:25:36;2.00;;;1.80;;
10389;SDS011;5241;47.830;12.972;2024-03-17T08:28:01;2.90;;;1.83;;
10389;SDS011;5241;47.830;12.972;2024-03-17T08:30:27;2.00;;;1.80;;
10389;SDS011;5241;47.830;12.972;2024-03-17T08:32:53;1.67;;;1.43;;
10389;SDS011;5241;47.830;12.972;2024-03-17T08:35:19;1.83;;;1.30;;
10389;SDS011;5241;47.830;12.972;2024-03-17T08:37:45;1.70;;;1.60;;
10389;SDS011;5241;47.830;12.972;2024-03-17T08:40:10;2.33;;;1.60;;
10389;SDS011;5241;47.830;12.972;2024-03-17T08:42:37;1.60;;;1.40;;
10389;SDS011;5241;47.830;12.972;2024-03-17T08:45:03;1.90;;;1.60;;
10389;SDS011;5241;47.830;12.972;2024-03-17T08:47:29;1.73;;;1.50;;
10389;SDS011;5241;47.830;12.972;2024-03-17T08:49:54;1.80;;;1.60;;
10389;SDS011;5241;47.830;12.972;2024-03-17T08:52:20;1.70;;;1.60;;
10389;SDS011;5241;47.830;12.972;2024-03-17T08:54:46;2.13;;;1.80;;
10389;SDS011;5241;47.830;12.972;2024-03-17T08:57:16;1.50;;;1.40;;
10389;SDS011;5241;47.830;12.972;2024-03-17T08:59:42;1.37;;;1.27;;
10389;SDS011;5241;47.830;12.972;2024-03-17T09:02:11;1.97;;;1.57;;
10389;SDS011;5241;47.830;12.972;2024-03-17T09:04:39;1.83;;;1.50;;
10389;SDS011;5241;47.830;12.972;2024-03-17T09:07:05;1.53;;;1.40;;
10389;SDS011;5241;47.830;12.972;2024-03-17T09:09:31;1.60;;;1.50;;
10389;SDS011;5241;47.830;12.972;2024-03-17T09:11:57;2.50;;;1.50;;
10389;SDS011;5241;47.830;12.972;2024-03-17T09:14:22;1.33;;;1.20;;
10389;SDS011;5241;47.830;12.972;2024-03-17T09:16:48;1.50;;;1.40;;
10389;SDS011;5241;47.830;12.972;2024-03-17T09:19:14;2.23;;;1.87;;
10389;SDS011;5241;47.830;12.972;2024-03-17T09:21:39;2.83;;;2.00;;
10389;SDS011;5241;47.830;12.972;2024-03-17T09:24:05;2.17;;;1.60;;
10389;SDS011;5241;47.830;12.972;2024-03-17T09:26:34;1.87;;;1.70;;
10389;SDS011;5241;47.830;12.972;2024-03-17T09:29:01;1.90;;;1.70;;
10389;SDS011;5241;47.830;12.972;2024-03-17T09:31:26;2.17;;;1.70;;
10389;SDS011;5241;47.830;12.972;2024-03-17T09:33:52;1.60;;;1.50;;
10389;SDS011;5241;47.830;12.972;2024-03-17T09:36:17;2.10;;;1.83;;
10389;SDS011;5241;47.830;12.972;2024-03-17T09:38:43;1.80;;;1.50;;
10389;SDS011;5241;47.830;12.972;2024-03-17T09:41:17;1.40;;;1.20;;
10389;SDS011;5241;47.830;12.972;2024-03-17T09:43:46;1.67;;;1.50;;
10389;SDS011;5241;47.830;12.972;2024-03-17T09:46:13;1.50;;;1.40;;
10389;SDS011;5241;47.830;12.972;2024-03-17T09:48:41;1.57;;;1.47;;
10389;SDS011;5241;47.830;12.972;2024-03-17T09:51:07;1.37;;;1.27;;
10389;SDS011;5241;47.830;12.972;2024-03-17T09:53:41;1.60;;;1.50;;
10389;SDS011;5241;47.830;12.972;2024-03-17T09:56:14;1.50;;;1.40;;
10389;SDS011;5241;47.830;12.972;2024-03-17T09:58:44;1.77;;;1.47;;
10389;SDS011;5241;47.830;12.972;2024-03-17T10:01:11;1.53;;;1.40;;
10389;SDS011;5241;47.830;12.972;2024-03-17T10:03:52;1.73;;;1.33;;
10389;SDS011;5241;47.830;12.972;2024-03-17T10:06:20;1.63;;;1.40;;
10389;SDS011;5241;47.830;12.972;2024-03-17T10:08:47;1.70;;;1.60;;
10389;SDS011;5241;47.830;12.972;2024-03-17T10:11:18;1.60;;;1.50;;
10389;SDS011;5241;47.830;12.972;2024-03-17T10:13:45;2.47;;;1.70;;
10389;SDS011;5241;47.830;12.972;2024-03-17T10:16:20;1.73;;;1.60;;
10389;SDS011;5241;47.830;12.972;2024-03-17T10:18:49;1.90;;;1.70;;
10389;SDS011;5241;47.830;12.972;2024-03-17T10:21:25;1.60;;;1.40;;
10389;SDS011;5241;47.830;12.972;2024-03-17T10:26:44;2.23;;;1.80;;
10389;SDS011;5241;47.830;12.972;2024-03-17T10:29:45;2.20;;;1.43;;
10389;SDS011;5241;47.830;12.972;2024-03-17T10:32:04;2.13;;;1.93;;
10389;SDS011;5241;47.830;12.972;2024-03-17T10:34:38;2.43;;;1.50;;
10389;SDS011;5241;47.830;12.972;2024-03-17T10:37:10;3.17;;;2.00;;
10389;SDS011;5241;47.830;12.972;2024-03-17T10:39:41;1.70;;;1.60;;
10389;SDS011;5241;47.830;12.972;2024-03-17T10:42:08;2.27;;;1.90;;
10389;SDS011;5241;47.830;12.972;2024-03-17T10:44:36;2.10;;;1.90;;
10389;SDS011;5241;47.830;12.972;2024-03-17T10:47:03;2.37;;;1.80;;
10389;SDS011;5241;47.830;12.972;2024-03-17T10:49:34;1.77;;;1.67;;
10389;SDS011;5241;47.830;12.972;2024-03-17T10:52:04;2.10;;;1.70;;
10389;SDS011;5241;47.830;12.972;2024-03-17T10:54:42;2.27;;;1.80;;
10389;SDS011;5241;47.830;12.972;2024-03-17T10:59:55;1.60;;;1.50;;
10389;SDS011;5241;47.830;12.972;2024-03-17T11:02:22;2.03;;;1.70;;
10389;SDS011;5241;47.830;12.972;2024-03-17T11:04:50;2.27;;;1.70;;
10389;SDS011;5241;47.830;12.972;2024-03-17T11:07:18;2.10;;;1.80;;
10389;SDS011;5241;47.830;12.972;2024-03-17T11:09:45;2.13;;;1.70;;
10389;SDS011;5241;47.830;12.972;2024-03-17T11:15:54;1.80;;;1.70;;
10389;SDS011;5241;47.830;12.972;2024-03-17T11:20:34;1.80;;;1.60;;
10389;SDS011;5241;47.830;12.972;2024-03-17T11:23:02;1.90;;;1.60;;
10389;SDS011;5241;47.830;12.972;2024-03-17T11:28:06;1.90;;;1.70;;
10389;SDS011;5241;47.830;12.972;2024-03-17T11:38:51;1.60;;;1.47;;
10389;SDS011;5241;47.830;12.972;2024-03-17T11:41:46;2.80;;;1.30;;
10389;SDS011;5241;47.830;12.972;2024-03-17T11:47:00;1.50;;;1.40;;
10389;SDS011;5241;47.830;12.972;2024-03-17T11:52:10;1.73;;;1.53;;
10389;SDS011;5241;47.830;12.972;2024-03-17T11:54:38;1.67;;;1.30;;
10389;SDS011;5241;47.830;12.972;2024-03-17T11:57:05;1.57;;;1.47;;
10389;SDS011;5241;47.830;12.972;2024-03-17T11:59:32;1.30;;;1.20;;
10389;SDS011;5241;47.830;12.972;2024-03-17T12:01:58;1.97;;;1.30;;
10389;SDS011;5241;47.830;12.972;2024-03-17T12:04:24;2.30;;;1.40;;
10389;SDS011;5241;47.830;12.972;2024-03-17T12:06:59;1.60;;;1.50;;
10389;SDS011;5241;47.830;12.972;2024-03-17T12:09:29;1.87;;;1.40;;
10389;SDS011;5241;47.830;12.972;2024-03-17T12:14:25;2.47;;;1.63;;
10389;SDS011;5241;47.830;12.972;2024-03-17T12:16:55;1.37;;;1.27;;
10389;SDS011;5241;47.830;12.972;2024-03-17T12:19:23;1.77;;;1.40;;
10389;SDS011;5241;47.830;12.972;2024-03-17T12:21:53;1.70;;;1.47;;
10389;SDS011;5241;47.830;12.972;2024-03-17T12:24:20;1.67;;;1.57;;
10389;SDS011;5241;47.830;12.972;2024-03-17T12:26:48;2.13;;;1.53;;
10389;SDS011;5241;47.830;12.972;2024-03-17T12:31:58;1.40;;;1.30;;
10389;SDS011;5241;47.830;12.972;2024-03-17T12:34:46;1.73;;;1.40;;
10389;SDS011;5241;47.830;12.972;2024-03-17T12:37:27;2.70;;;1.40;;
10389;SDS011;5241;47.830;12.972;2024-03-17T12:39:59;3.37;;;2.00;;
10389;SDS011;5241;47.830;12.972;2024-03-17T12:42:25;1.50;;;1.23;;
10389;SDS011;5241;47.830;12.972;2024-03-17T12:44:59;3.07;;;1.27;;
10389;SDS011;5241;47.830;12.972;2024-03-17T12:47:29;1.73;;;1.40;;
10389;SDS011;5241;47.830;12.972;2024-03-17T12:49:57;2.23;;;1.00;;
10389;SDS011;5241;47.830;12.972;2024-03-17T12:52:24;1.40;;;0.97;;
10389;SDS011;5241;47.830;12.972;2024-03-17T12:57:44;1.50;;;1.20;;
10389;SDS011;5241;47.830;12.972;2024-03-17T13:00:29;1.10;;;1.00;;
10389;SDS011;5241;47.830;12.972;2024-03-17T13:02:59;0.90;;;0.90;;
10389;SDS011;5241;47.830;12.972;2024-03-17T13:05:36;1.30;;;1.00;;
10389;SDS011;5241;47.830;12.972;2024-03-17T13:08:02;1.10;;;1.00;;
10389;SDS011;5241;47.830;12.972;2024-03-17T13:10:29;1.03;;;0.93;;
10389;SDS011;5241;47.830;12.972;2024-03-17T13:12:59;1.10;;;1.00;;
10389;SDS011;5241;47.830;12.972;2024-03-17T13:15:26;1.33;;;0.97;;
10389;SDS011;5241;47.830;12.972;2024-03-17T13:17:52;1.27;;;0.77;;
10389;SDS011;5241;47.830;12.972;2024-03-17T13:20:17;1.17;;;1.07;;
10389;SDS011;5241;47.830;12.972;2024-03-17T13:22:43;1.17;;;1.07;;
10389;SDS011;5241;47.830;12.972;2024-03-17T13:25:22;1.83;;;1.10;;
10389;SDS011;5241;47.830;12.972;2024-03-17T13:27:51;1.10;;;1.00;;
10389;SDS011;5241;47.830;12.972;2024-03-17T13:30:18;1.10;;;0.97;;
10389;SDS011;5241;47.830;12.972;2024-03-17T13:32:47;0.93;;;0.90;;
10389;SDS011;5241;47.830;12.972;2024-03-17T13:35:16;1.40;;;0.90;;
10389;SDS011;5241;47.830;12.972;2024-03-17T13:37:46;1.30;;;1.10;;
10389;SDS011;5241;47.830;12.972;2024-03-17T13:40:14;2.00;;;1.23;;
10389;SDS011;5241;47.830;12.972;2024-03-17T13:42:44;1.17;;;1.07;;
10389;SDS011;5241;47.830;12.972;2024-03-17T13:45:14;1.20;;;1.10;;
10389;SDS011;5241;47.830;12.972;2024-03-17T13:47:40;1.10;;;1.00;;
10389;SDS011;5241;47.830;12.972;2024-03-17T13:50:06;1.90;;;1.13;;
10389;SDS011;5241;47.830;12.972;2024-03-17T13:52:37;1.20;;;0.87;;
10389;SDS011;5241;47.830;12.972;2024-03-17T13:55:06;1.70;;;1.10;;
10389;SDS011;5241;47.830;12.972;2024-03-17T13:57:51;0.90;;;0.90;;
10389;SDS011;5241;47.830;12.972;2024-03-17T14:00:19;2.00;;;1.10;;
10389;SDS011;5241;47.830;12.972;2024-03-17T14:02:46;1.17;;;1.00;;
10389;SDS011;5241;47.830;12.972;2024-03-17T14:05:14;3.10;;;1.17;;
10389;SDS011;5241;47.830;12.972;2024-03-17T14:07:41;2.23;;;1.00;;
10389;SDS011;5241;47.830;12.972;2024-03-17T14:10:07;1.20;;;1.10;;
10389;SDS011;5241;47.830;12.972;2024-03-17T14:12:34;2.93;;;1.10;;
10389;SDS011;5241;47.830;12.972;2024-03-17T14:15:00;1.60;;;0.90;;
10389;SDS011;5241;47.830;12.972;2024-03-17T14:17:26;1.10;;;1.00;;
10389;SDS011;5241;47.830;12.972;2024-03-17T14:19:52;1.67;;;1.57;;
10389;SDS011;5241;47.830;12.972;2024-03-17T14:22:18;1.63;;;1.10;;
10389;SDS011;5241;47.830;12.972;2024-03-17T14:24:43;2.00;;;1.40;;
10389;SDS011;5241;47.830;12.972;2024-03-17T14:27:09;1.20;;;1.03;;
10389;SDS011;5241;47.830;12.972;2024-03-17T14:29:38;1.63;;;0.90;;
10389;SDS011;5241;47.830;12.972;2024-03-17T14:32:03;1.00;;;0.90;;
10389;SDS011;5241;47.830;12.972;2024-03-17T14:34:29;2.73;;;1.30;;
10389;SDS011;5241;47.830;12.972;2024-03-17T14:36:59;1.10;;;1.00;;
10389;SDS011;5241;47.830;12.972;2024-03-17T14:39:26;1.57;;;1.00;;
10389;SDS011;5241;47.830;12.972;2024-03-17T14:41:54;1.30;;;0.83;;
10389;SDS011;5241;47.830;12.972;2024-03-17T14:44:20;1.50;;;1.10;;
10389;SDS011;5241;47.830;12.972;2024-03-17T14:46:45;0.90;;;0.80;;
10389;SDS011;5241;47.830;12.972;2024-03-17T14:49:12;1.00;;;0.90;;
10389;SDS011;5241;47.830;12.972;2024-03-17T14:51:38;2.10;;;1.13;;
10389;SDS011;5241;47.830;12.972;2024-03-17T14:54:03;1.20;;;1.00;;
10389;SDS011;5241;47.830;12.972;2024-03-17T14:56:30;1.80;;;1.17;;
10389;SDS011;5241;47.830;12.972;2024-03-17T14:58:56;1.33;;;1.07;;
10389;SDS011;5241;47.830;12.972;2024-03-17T15:01:21;2.20;;;1.30;;
10389;SDS011;5241;47.830;12.972;2024-03-17T15:03:47;4.07;;;1.30;;
10389;SDS011;5241;47.830;12.972;2024-03-17T15:06:13;2.13;;;1.30;;
10389;SDS011;5241;47.830;12.972;2024-03-17T15:08:40;1.20;;;1.00;;
10389;SDS011;5241;47.830;12.972;2024-03-17T15:11:06;1.77;;;1.10;;
10389;SDS011;5241;47.830;12.972;2024-03-17T15:13:34;1.13;;;1.00;;
10389;SDS011;5241;47.830;12.972;2024-03-17T15:16:00;1.53;;;1.20;;
10389;SDS011;5241;47.830;12.972;2024-03-17T15:18:28;1.97;;;1.10;;
10389;SDS011;5241;47.830;12.972;2024-03-17T15:20:54;2.03;;;1.30;;
10389;SDS011;5241;47.830;12.972;2024-03-17T15:23:22;2.70;;;1.47;;
10389;SDS011;5241;47.830;12.972;2024-03-17T15:25:58;1.27;;;1.13;;
10389;SDS011;5241;47.830;12.972;2024-03-17T15:28:36;3.50;;;1.30;;
10389;SDS011;5241;47.830;12.972;2024-03-17T15:31:05;1.67;;;1.50;;
10389;SDS011;5241;47.830;12.972;2024-03-17T15:33:31;1.30;;;1.20;;
10389;SDS011;5241;47.830;12.972;2024-03-17T15:36:02;1.87;;;1.27;;
10389;SDS011;5241;47.830;12.972;2024-03-17T15:38:31;2.27;;;1.60;;